sensor_id;sensor_type;location;lat;lon;timestamp;pressure;altitude;pressure_sealevel;temperature;humidity
58534;BME280;44109;52.398;7.024;2023-03-14T00:02:23;98621.28;;;11.77;100.00
58534;BME280;44109;52.398;7.024;2023-03-14T00:04:53;98619.38;;;11.74;100.00
58534;BME280;44109;52.398;7.024;2023-03-14T00:07:23;98615.88;;;11.70;100.00
58534;BME280;44109;52.398;7.024;2023-03-14T00:09:51;98616.66;;;11.71;100.00
58534;BME280;44109;52.398;7.024;2023-03-14T00:12:19;98608.06;;;11.65;100.00
58534;BME280;44109;52.398;7.024;2023-03-14T00:14:46;98635.50;;;11.63;100.00
58534;BME280;44109;52.398;7.024;2023-03-14T00:17:14;98614.22;;;11.56;100.00
58534;BME280;44109;52.398;7.024;2023-03-14T00:19:41;98609.94;;;11.52;100.00
58534;BME280;44109;52.398;7.024;2023-03-14T00:22:09;98614.00;;;11.47;100.00
58534;BME280;44109;52.398;7.024;2023-03-14T00:24:38;98591.88;;;11.43;100.00
58534;BME280;44109;52.398;7.024;2023-03-14T00:27:05;98608.63;;;11.40;100.00
58534;BME280;44109;52.398;7.024;2023-03-14T00:29:33;98598.31;;;11.40;100.00
58534;BME280;44109;52.398;7.024;2023-03-14T00:32:00;98604.31;;;11.35;100.00
58534;BME280;44109;52.398;7.024;2023-03-14T00:34:28;98594.56;;;11.47;100.00
58534;BME280;44109;52.398;7.024;2023-03-14T00:36:56;98595.88;;;11.42;100.00
58534;BME280;44109;52.398;7.024;2023-03-14T00:39:24;98597.41;;;11.43;100.00
58534;BME280;44109;52.398;7.024;2023-03-14T00:41:53;98579.78;;;11.54;100.00
58534;BME280;44109;52.398;7.024;2023-03-14T00:44:21;98576.47;;;11.59;100.00
58534;BME280;44109;52.398;7.024;2023-03-14T00:46:49;98554.59;;;11.45;100.00
58534;BME280;44109;52.398;7.024;2023-03-14T00:49:16;98577.00;;;11.54;100.00
58534;BME280;44109;52.398;7.024;2023-03-14T00:51:44;98559.63;;;11.66;100.00
58534;BME280;44109;52.398;7.024;2023-03-14T00:54:12;98558.56;;;11.43;100.00
58534;BME280;44109;52.398;7.024;2023-03-14T00:56:39;98552.00;;;11.54;100.00
58534;BME280;44109;52.398;7.024;2023-03-14T00:59:08;98544.97;;;11.49;100.00
58534;BME280;44109;52.398;7.024;2023-03-14T01:01:36;98546.59;;;11.47;100.00
58534;BME280;44109;52.398;7.024;2023-03-14T01:04:03;98533.69;;;11.40;100.00
58534;BME280;44109;52.398;7.024;2023-03-14T01:06:32;98546.59;;;11.47;100.00
58534;BME280;44109;52.398;7.024;2023-03-14T01:09:00;98546.09;;;11.52;100.00
58534;BME280;44109;52.398;7.024;2023-03-14T01:11:31;98551.44;;;11.42;100.00
58534;BME280;44109;52.398;7.024;2023-03-14T01:13:59;98562.22;;;11.40;100.00
58534;BME280;44109;52.398;7.024;2023-03-14T01:16:31;98536.22;;;11.31;100.00
58534;BME280;44109;52.398;7.024;2023-03-14T01:19:00;98566.53;;;11.41;100.00
58534;BME280;44109;52.398;7.024;2023-03-14T01:21:29;98551.59;;;11.35;100.00
58534;BME280;44109;52.398;7.024;2023-03-14T01:23:59;98563.06;;;11.37;100.00
58534;BME280;44109;52.398;7.024;2023-03-14T01:26:31;98558.88;;;11.29;100.00
58534;BME280;44109;52.398;7.024;2023-03-14T01:29:00;98557.66;;;11.30;100.00
58534;BME280;44109;52.398;7.024;2023-03-14T01:31:29;98561.56;;;11.33;100.00
58534;BME280;44109;52.398;7.024;2023-03-14T01:33:57;98568.22;;;11.19;100.00
58534;BME280;44109;52.398;7.024;2023-03-14T01:36:24;98577.19;;;11.07;100.00
58534;BME280;44109;52.398;7.024;2023-03-14T01:38:52;98591.78;;;10.91;100.00
58534;BME280;44109;52.398;7.024;2023-03-14T01:41:22;98555.97;;;10.57;100.00
58534;BME280;44109;52.398;7.024;2023-03-14T01:43:52;98556.59;;;10.45;100.00
58534;BME280;44109;52.398;7.024;2023-03-14T01:46:24;98564.19;;;10.40;100.00
58534;BME280;44109;52.398;7.024;2023-03-14T01:49:22;98539.88;;;10.28;100.00
58534;BME280;44109;52.398;7.024;2023-03-14T01:51:57;98563.81;;;10.38;100.00
58534;BME280;44109;52.398;7.024;2023-03-14T01:54:32;98541.53;;;10.22;100.00
58534;BME280;44109;52.398;7.024;2023-03-14T01:57:06;98563.97;;;10.31;100.00
58534;BME280;44109;52.398;7.024;2023-03-14T01:59:39;98574.91;;;10.38;100.00
58534;BME280;44109;52.398;7.024;2023-03-14T02:02:12;98581.28;;;10.35;100.00
58534;BME280;44109;52.398;7.024;2023-03-14T02:04:42;98571.41;;;10.34;100.00
58534;BME280;44109;52.398;7.024;2023-03-14T02:07:14;98568.66;;;10.34;100.00
58534;BME280;44109;52.398;7.024;2023-03-14T02:09:44;98557.69;;;10.27;100.00
58534;BME280;44109;52.398;7.024;2023-03-14T02:12:14;98561.53;;;10.33;100.00
58534;BME280;44109;52.398;7.024;2023-03-14T02:14:43;98556.84;;;10.30;100.00
58534;BME280;44109;52.398;7.024;2023-03-14T02:17:14;98564.19;;;10.40;100.00
58534;BME280;44109;52.398;7.024;2023-03-14T02:20:03;98509.88;;;10.00;100.00
58534;BME280;44109;52.398;7.024;2023-03-14T02:22:46;98557.28;;;10.29;100.00
58534;BME280;44109;52.398;7.024;2023-03-14T02:25:17;98563.88;;;10.35;100.00
58534;BME280;44109;52.398;7.024;2023-03-14T02:27:53;98564.75;;;10.32;100.00
58534;BME280;44109;52.398;7.024;2023-03-14T02:30:23;98568.59;;;10.38;100.00
58534;BME280;44109;52.398;7.024;2023-03-14T02:32:56;98563.16;;;10.31;100.00
58534;BME280;44109;52.398;7.024;2023-03-14T02:35:32;98563.03;;;10.38;100.00
58534;BME280;44109;52.398;7.024;2023-03-14T02:38:07;98559.13;;;10.35;100.00
58534;BME280;44109;52.398;7.024;2023-03-14T02:40:42;98561.78;;;10.43;100.00
58534;BME280;44109;52.398;7.024;2023-03-14T02:43:11;98555.56;;;10.35;100.00
58534;BME280;44109;52.398;7.024;2023-03-14T02:45:41;98553.19;;;10.37;100.00
58534;BME280;44109;52.398;7.024;2023-03-14T02:48:16;98556.84;;;10.30;100.00
58534;BME280;44109;52.398;7.024;2023-03-14T02:50:48;98566.47;;;10.22;100.00
58534;BME280;44109;52.398;7.024;2023-03-14T02:53:22;98569.19;;;10.26;100.00
58534;BME280;44109;52.398;7.024;2023-03-14T02:55:53;98570.28;;;10.08;100.00
58534;BME280;44109;52.398;7.024;2023-03-14T02:58:22;98568.28;;;10.32;100.00
58534;BME280;44109;52.398;7.024;2023-03-14T03:00:50;98567.56;;;10.28;100.00
58534;BME280;44109;52.398;7.024;2023-03-14T03:03:18;98580.13;;;10.09;100.00
58534;BME280;44109;52.398;7.024;2023-03-14T03:05:48;98588.72;;;9.91;100.00
58534;BME280;44109;52.398;7.024;2023-03-14T03:08:16;98596.53;;;9.73;100.00
58534;BME280;44109;52.398;7.024;2023-03-14T03:10:44;98597.00;;;9.68;100.00
58534;BME280;44109;52.398;7.024;2023-03-14T03:13:12;98593.88;;;9.62;100.00
58534;BME280;44109;52.398;7.024;2023-03-14T03:15:41;98593.50;;;9.64;100.00
58534;BME280;44109;52.398;7.024;2023-03-14T03:18:08;98578.53;;;9.58;100.00
58534;BME280;44109;52.398;7.024;2023-03-14T03:20:38;98585.78;;;9.48;100.00
58534;BME280;44109;52.398;7.024;2023-03-14T03:23:05;98586.69;;;9.42;100.00
58534;BME280;44109;52.398;7.024;2023-03-14T03:25:33;98573.13;;;9.20;100.00
58534;BME280;44109;52.398;7.024;2023-03-14T03:28:01;98580.59;;;9.23;100.00
58534;BME280;44109;52.398;7.024;2023-03-14T03:30:36;98570.78;;;9.19;100.00
58534;BME280;44109;52.398;7.024;2023-03-14T03:33:06;98571.09;;;9.24;100.00
58534;BME280;44109;52.398;7.024;2023-03-14T03:35:34;98578.78;;;9.13;100.00
58534;BME280;44109;52.398;7.024;2023-03-14T03:38:02;98530.19;;;8.81;100.00
58534;BME280;44109;52.398;7.024;2023-03-14T03:40:30;98584.22;;;9.17;100.00
58534;BME280;44109;52.398;7.024;2023-03-14T03:42:57;98582.81;;;9.05;100.00
58534;BME280;44109;52.398;7.024;2023-03-14T03:45:25;98586.22;;;9.16;100.00
58534;BME280;44109;52.398;7.024;2023-03-14T03:47:52;98588.88;;;9.27;100.00
58534;BME280;44109;52.398;7.024;2023-03-14T03:50:21;98587.34;;;9.22;100.00
58534;BME280;44109;52.398;7.024;2023-03-14T03:52:49;98576.91;;;9.03;100.00
58534;BME280;44109;52.398;7.024;2023-03-14T03:55:16;98569.81;;;9.02;100.00
58534;BME280;44109;52.398;7.024;2023-03-14T03:57:44;98569.81;;;9.02;100.00
58534;BME280;44109;52.398;7.024;2023-03-14T04:00:12;98576.63;;;8.94;100.00
58534;BME280;44109;52.398;7.024;2023-03-14T04:02:40;98581.25;;;9.04;100.00
58534;BME280;44109;52.398;7.024;2023-03-14T04:05:08;98575.72;;;9.04;100.00
58534;BME280;44109;52.398;7.024;2023-03-14T04:07:37;98581.63;;;9.06;100.00
58534;BME280;44109;52.398;7.024;2023-03-14T04:10:05;98585.59;;;9.05;100.00
58534;BME280;44109;52.398;7.024;2023-03-14T04:12:33;98576.13;;;9.02;100.00
58534;BME280;44109;52.398;7.024;2023-03-14T04:15:00;98569.06;;;8.98;100.00
58534;BME280;44109;52.398;7.024;2023-03-14T04:17:28;98568.25;;;9.01;100.00
58534;BME280;44109;52.398;7.024;2023-03-14T04:19:55;98573.47;;;8.95;100.00
58534;BME280;44109;52.398;7.024;2023-03-14T04:22:23;98537.63;;;8.84;100.00
58534;BME280;44109;52.398;7.024;2023-03-14T04:24:52;98567.88;;;8.99;100.00
58534;BME280;44109;52.398;7.024;2023-03-14T04:27:19;98558.59;;;9.12;100.00
58534;BME280;44109;52.398;7.024;2023-03-14T04:29:47;98556.25;;;9.11;100.00
58534;BME280;44109;52.398;7.024;2023-03-14T04:32:14;98554.75;;;9.06;100.00
58534;BME280;44109;52.398;7.024;2023-03-14T04:34:42;98563.00;;;9.10;100.00
58534;BME280;44109;52.398;7.024;2023-03-14T04:37:09;98552.34;;;9.08;100.00
58534;BME280;44109;52.398;7.024;2023-03-14T04:39:38;98521.16;;;8.77;100.00
58534;BME280;44109;52.398;7.024;2023-03-14T04:42:07;98550.31;;;9.12;100.00
58534;BME280;44109;52.398;7.024;2023-03-14T04:44:34;98548.25;;;9.20;100.00
58534;BME280;44109;52.398;7.024;2023-03-14T04:47:02;98547.97;;;9.11;100.00
58534;BME280;44109;52.398;7.024;2023-03-14T04:49:29;98550.00;;;9.07;100.00
58534;BME280;44109;52.398;7.024;2023-03-14T04:51:57;98551.81;;;9.17;100.00
58534;BME280;44109;52.398;7.024;2023-03-14T04:54:25;98543.63;;;9.10;100.00
58534;BME280;44109;52.398;7.024;2023-03-14T04:56:52;98524.53;;;8.88;100.00
58534;BME280;44109;52.398;7.024;2023-03-14T04:59:21;98539.66;;;9.11;100.00
58534;BME280;44109;52.398;7.024;2023-03-14T05:01:49;98542.44;;;9.11;100.00
58534;BME280;44109;52.398;7.024;2023-03-14T05:04:16;98540.31;;;9.22;100.00
58534;BME280;44109;52.398;7.024;2023-03-14T05:06:44;98531.63;;;9.20;100.00
58534;BME280;44109;52.398;7.024;2023-03-14T05:09:11;98534.50;;;9.40;100.00
58534;BME280;44109;52.398;7.024;2023-03-14T05:11:39;98539.25;;;9.39;100.00
58534;BME280;44109;52.398;7.024;2023-03-14T05:14:06;98538.00;;;9.17;100.00
58534;BME280;44109;52.398;7.024;2023-03-14T05:16:35;98530.91;;;9.16;100.00
58534;BME280;44109;52.398;7.024;2023-03-14T05:19:03;98515.88;;;9.17;100.00
58534;BME280;44109;52.398;7.024;2023-03-14T05:21:31;98507.56;;;9.17;100.00
58534;BME280;44109;52.398;7.024;2023-03-14T05:23:58;98514.72;;;9.14;100.00
58534;BME280;44109;52.398;7.024;2023-03-14T05:26:26;98514.88;;;9.04;100.00
58534;BME280;44109;52.398;7.024;2023-03-14T05:28:53;98513.56;;;9.12;100.00
58534;BME280;44109;52.398;7.024;2023-03-14T05:31:21;98491.75;;;8.91;100.00
58534;BME280;44109;52.398;7.024;2023-03-14T05:33:50;98503.53;;;8.95;100.00
58534;BME280;44109;52.398;7.024;2023-03-14T05:36:17;98512.38;;;9.13;100.00
58534;BME280;44109;52.398;7.024;2023-03-14T05:38:45;98510.63;;;8.96;100.00
58534;BME280;44109;52.398;7.024;2023-03-14T05:41:12;98512.66;;;8.92;100.00
58534;BME280;44109;52.398;7.024;2023-03-14T05:43:40;98509.78;;;8.99;100.00
58534;BME280;44109;52.398;7.024;2023-03-14T05:46:07;98508.19;;;9.01;100.00
58534;BME280;44109;52.398;7.024;2023-03-14T05:48:35;98512.28;;;8.89;100.00
58534;BME280;44109;52.398;7.024;2023-03-14T05:51:05;98508.19;;;9.01;100.00
58534;BME280;44109;52.398;7.024;2023-03-14T05:53:33;98504.13;;;9.09;100.00
58534;BME280;44109;52.398;7.024;2023-03-14T05:56:00;98501.84;;;9.04;100.00
58534;BME280;44109;52.398;7.024;2023-03-14T05:58:28;98499.13;;;9.01;100.00
58534;BME280;44109;52.398;7.024;2023-03-14T06:00:55;98483.63;;;9.07;100.00
58534;BME280;44109;52.398;7.024;2023-03-14T06:03:23;98495.69;;;9.20;100.00
58534;BME280;44109;52.398;7.024;2023-03-14T06:05:51;98494.91;;;9.20;100.00
58534;BME280;44109;52.398;7.024;2023-03-14T06:08:20;98500.00;;;9.21;100.00
58534;BME280;44109;52.398;7.024;2023-03-14T06:10:47;98500.75;;;9.25;100.00
58534;BME280;44109;52.398;7.024;2023-03-14T06:13:15;98490.78;;;9.31;100.00
58534;BME280;44109;52.398;7.024;2023-03-14T06:15:43;98491.63;;;9.28;100.00
58534;BME280;44109;52.398;7.024;2023-03-14T06:18:11;98496.69;;;9.33;100.00
58534;BME280;44109;52.398;7.024;2023-03-14T06:20:40;98498.25;;;9.34;100.00
58534;BME280;44109;52.398;7.024;2023-03-14T06:23:08;98493.81;;;9.40;100.00
58534;BME280;44109;52.398;7.024;2023-03-14T06:25:37;98499.13;;;9.55;100.00
58534;BME280;44109;52.398;7.024;2023-03-14T06:28:05;98501.66;;;9.46;100.00
58534;BME280;44109;52.398;7.024;2023-03-14T06:30:33;98503.69;;;9.42;100.00
58534;BME280;44109;52.398;7.024;2023-03-14T06:33:00;98488.88;;;9.52;100.00
58534;BME280;44109;52.398;7.024;2023-03-14T06:35:28;98498.09;;;9.45;100.00
58534;BME280;44109;52.398;7.024;2023-03-14T06:37:56;98508.72;;;9.47;100.00
58534;BME280;44109;52.398;7.024;2023-03-14T06:40:23;98492.38;;;9.56;100.00
58534;BME280;44109;52.398;7.024;2023-03-14T06:42:52;98499.38;;;9.64;100.00
58534;BME280;44109;52.398;7.024;2023-03-14T06:45:20;98501.09;;;9.81;100.00
58534;BME280;44109;52.398;7.024;2023-03-14T06:47:47;98497.44;;;9.84;100.00
58534;BME280;44109;52.398;7.024;2023-03-14T06:50:15;98486.63;;;9.70;100.00
58534;BME280;44109;52.398;7.024;2023-03-14T06:52:43;98504.06;;;9.67;100.00
58534;BME280;44109;52.398;7.024;2023-03-14T06:55:13;98505.66;;;9.68;100.00
58534;BME280;44109;52.398;7.024;2023-03-14T06:57:42;98513.56;;;9.66;100.00
58534;BME280;44109;52.398;7.024;2023-03-14T07:00:13;98509.41;;;9.54;100.00
58534;BME280;44109;52.398;7.024;2023-03-14T07:02:41;98523.25;;;9.54;100.00
58534;BME280;44109;52.398;7.024;2023-03-14T07:05:09;98522.47;;;9.54;100.00
58534;BME280;44109;52.398;7.024;2023-03-14T07:07:37;98521.09;;;9.38;100.00
58534;BME280;44109;52.398;7.024;2023-03-14T07:10:05;98522.88;;;9.25;100.00
58534;BME280;44109;52.398;7.024;2023-03-14T07:12:34;98537.41;;;9.33;100.00
58534;BME280;44109;52.398;7.024;2023-03-14T07:15:02;98536.16;;;9.37;100.00
58534;BME280;44109;52.398;7.024;2023-03-14T07:17:31;98543.41;;;9.28;100.00
58534;BME280;44109;52.398;7.024;2023-03-14T07:19:59;98534.13;;;9.11;100.00
58534;BME280;44109;52.398;7.024;2023-03-14T07:22:27;98539.34;;;9.36;100.00
58534;BME280;44109;52.398;7.024;2023-03-14T07:24:54;98541.22;;;9.43;100.00
58534;BME280;44109;52.398;7.024;2023-03-14T07:27:22;98534.47;;;9.44;100.00
58534;BME280;44109;52.398;7.024;2023-03-14T07:29:49;98536.75;;;9.49;100.00
58534;BME280;44109;52.398;7.024;2023-03-14T07:32:17;98534.31;;;9.54;100.00
58534;BME280;44109;52.398;7.024;2023-03-14T07:34:46;98545.53;;;9.44;100.00
58534;BME280;44109;52.398;7.024;2023-03-14T07:37:13;98551.19;;;9.36;100.00
58534;BME280;44109;52.398;7.024;2023-03-14T07:39:41;98542.41;;;9.42;100.00
58534;BME280;44109;52.398;7.024;2023-03-14T07:42:08;98556.41;;;9.58;100.00
58534;BME280;44109;52.398;7.024;2023-03-14T07:44:37;98552.81;;;9.61;100.00
58534;BME280;44109;52.398;7.024;2023-03-14T07:47:04;98548.00;;;9.65;100.00
58534;BME280;44109;52.398;7.024;2023-03-14T07:49:32;98557.81;;;9.70;100.00
58534;BME280;44109;52.398;7.024;2023-03-14T07:52:01;98557.09;;;9.89;100.00
58534;BME280;44109;52.398;7.024;2023-03-14T07:54:28;98549.94;;;9.68;100.00
58534;BME280;44109;52.398;7.024;2023-03-14T07:56:56;98556.56;;;9.74;100.00
58534;BME280;44109;52.398;7.024;2023-03-14T07:59:24;98561.88;;;9.61;100.00
58534;BME280;44109;52.398;7.024;2023-03-14T08:01:52;98544.88;;;9.36;100.00
58534;BME280;44109;52.398;7.024;2023-03-14T08:04:19;98564.81;;;9.51;100.00
58534;BME280;44109;52.398;7.024;2023-03-14T08:06:47;98580.78;;;9.66;100.00
58534;BME280;44109;52.398;7.024;2023-03-14T08:09:16;98566.47;;;9.45;100.00
58534;BME280;44109;52.398;7.024;2023-03-14T08:11:44;98583.28;;;9.57;100.00
58534;BME280;44109;52.398;7.024;2023-03-14T08:14:11;98576.97;;;9.84;100.00
58534;BME280;44109;52.398;7.024;2023-03-14T08:16:39;98581.78;;;9.80;100.00
58534;BME280;44109;52.398;7.024;2023-03-14T08:19:06;98574.59;;;9.59;100.00
58534;BME280;44109;52.398;7.024;2023-03-14T08:21:34;98671.19;;;8.78;100.00
58534;BME280;44109;52.398;7.024;2023-03-14T08:24:02;98644.69;;;7.80;100.00
58534;BME280;44109;52.398;7.024;2023-03-14T08:26:31;98677.50;;;7.67;100.00
58534;BME280;44109;52.398;7.024;2023-03-14T08:28:58;98677.16;;;7.58;100.00
58534;BME280;44109;52.398;7.024;2023-03-14T08:31:26;98686.16;;;7.69;100.00
58534;BME280;44109;52.398;7.024;2023-03-14T08:33:54;98683.06;;;7.60;100.00
58534;BME280;44109;52.398;7.024;2023-03-14T08:36:21;98693.31;;;7.63;100.00
58534;BME280;44109;52.398;7.024;2023-03-14T08:38:49;98690.97;;;7.54;100.00
58534;BME280;44109;52.398;7.024;2023-03-14T08:41:16;98703.97;;;7.54;100.00
58534;BME280;44109;52.398;7.024;2023-03-14T08:43:45;98649.69;;;7.36;100.00
58534;BME280;44109;52.398;7.024;2023-03-14T08:46:13;98716.94;;;7.64;100.00
58534;BME280;44109;52.398;7.024;2023-03-14T08:48:40;98719.34;;;7.55;100.00
58534;BME280;44109;52.398;7.024;2023-03-14T08:51:09;98729.97;;;7.60;100.00
58534;BME280;44109;52.398;7.024;2023-03-14T08:53:39;98755.63;;;7.46;100.00
58534;BME280;44109;52.398;7.024;2023-03-14T08:56:08;98786.41;;;7.16;100.00
58534;BME280;44109;52.398;7.024;2023-03-14T08:58:37;98766.38;;;6.73;100.00
58534;BME280;44109;52.398;7.024;2023-03-14T09:01:08;98820.28;;;6.63;100.00
58534;BME280;44109;52.398;7.024;2023-03-14T09:03:37;98843.41;;;6.19;100.00
58534;BME280;44109;52.398;7.024;2023-03-14T09:06:07;98859.22;;;5.60;100.00
58534;BME280;44109;52.398;7.024;2023-03-14T09:08:36;98864.63;;;5.46;100.00
58534;BME280;44109;52.398;7.024;2023-03-14T09:11:07;98865.31;;;5.28;100.00
58534;BME280;44109;52.398;7.024;2023-03-14T09:13:35;98870.38;;;5.26;100.00
58534;BME280;44109;52.398;7.024;2023-03-14T09:16:04;98878.22;;;5.24;100.00
58534;BME280;44109;52.398;7.024;2023-03-14T09:18:33;98865.94;;;5.11;100.00
58534;BME280;44109;52.398;7.024;2023-03-14T09:21:01;98908.06;;;5.22;100.00
58534;BME280;44109;52.398;7.024;2023-03-14T09:23:29;98913.25;;;4.90;100.00
58534;BME280;44109;52.398;7.024;2023-03-14T09:25:56;98935.97;;;4.83;100.00
58534;BME280;44109;52.398;7.024;2023-03-14T09:28:25;98974.63;;;4.68;100.00
58534;BME280;44109;52.398;7.024;2023-03-14T09:30:53;98973.09;;;4.70;100.00
58534;BME280;44109;52.398;7.024;2023-03-14T09:33:21;98975.69;;;4.56;100.00
58534;BME280;44109;52.398;7.024;2023-03-14T09:35:50;98977.00;;;4.69;100.00
58534;BME280;44109;52.398;7.024;2023-03-14T09:38:18;99010.75;;;4.40;100.00
58534;BME280;44109;52.398;7.024;2023-03-14T09:40:46;99004.28;;;4.25;100.00
58534;BME280;44109;52.398;7.024;2023-03-14T09:43:15;99011.31;;;4.52;100.00
58534;BME280;44109;52.398;7.024;2023-03-14T09:45:44;99035.56;;;4.47;100.00
58534;BME280;44109;52.398;7.024;2023-03-14T09:48:15;99037.81;;;4.38;100.00
58534;BME280;44109;52.398;7.024;2023-03-14T09:50:48;99052.97;;;4.58;100.00
58534;BME280;44109;52.398;7.024;2023-03-14T09:53:23;99060.81;;;4.56;100.00
58534;BME280;44109;52.398;7.024;2023-03-14T09:55:57;99068.31;;;4.63;100.00
58534;BME280;44109;52.398;7.024;2023-03-14T09:58:26;99059.75;;;4.68;100.00
58534;BME280;44109;52.398;7.024;2023-03-14T10:00:55;99079.31;;;4.63;100.00
58534;BME280;44109;52.398;7.024;2023-03-14T10:03:28;99114.66;;;4.94;100.00
58534;BME280;44109;52.398;7.024;2023-03-14T10:06:00;99103.59;;;4.87;100.00
58534;BME280;44109;52.398;7.024;2023-03-14T10:08:28;99113.34;;;4.84;100.00
58534;BME280;44109;52.398;7.024;2023-03-14T10:10:56;99126.34;;;4.88;100.00
58534;BME280;44109;52.398;7.024;2023-03-14T10:13:27;99140.44;;;5.16;100.00
58534;BME280;44109;52.398;7.024;2023-03-14T10:15:59;99137.72;;;4.86;100.00
58534;BME280;44109;52.398;7.024;2023-03-14T10:18:29;99142.84;;;4.88;100.00
58534;BME280;44109;52.398;7.024;2023-03-14T10:21:06;99161.75;;;4.93;100.00
58534;BME280;44109;52.398;7.024;2023-03-14T10:23:43;99169.78;;;5.08;100.00
58534;BME280;44109;52.398;7.024;2023-03-14T10:26:13;99184.13;;;4.95;100.00
58534;BME280;44109;52.398;7.024;2023-03-14T10:28:45;99186.75;;;5.14;100.00
58534;BME280;44109;52.398;7.024;2023-03-14T10:31:14;99201.25;;;5.45;100.00
58534;BME280;44109;52.398;7.024;2023-03-14T10:33:57;99208.44;;;5.53;100.00
58534;BME280;44109;52.398;7.024;2023-03-14T10:36:28;99210.53;;;5.63;100.00
58534;BME280;44109;52.398;7.024;2023-03-14T10:39:16;99220.09;;;5.76;100.00
58534;BME280;44109;52.398;7.024;2023-03-14T10:41:53;99204.09;;;5.85;100.00
58534;BME280;44109;52.398;7.024;2023-03-14T10:44:24;99230.47;;;5.87;100.00
58534;BME280;44109;52.398;7.024;2023-03-14T10:47:00;99239.25;;;5.99;100.00
58534;BME280;44109;52.398;7.024;2023-03-14T10:49:31;99229.47;;;6.02;100.00
58534;BME280;44109;52.398;7.024;2023-03-14T10:52:14;99259.72;;;6.02;100.00
58534;BME280;44109;52.398;7.024;2023-03-14T10:54:52;99267.56;;;6.81;100.00
58534;BME280;44109;52.398;7.024;2023-03-14T10:57:23;99285.75;;;6.49;100.00
58534;BME280;44109;52.398;7.024;2023-03-14T10:59:52;99279.16;;;6.57;100.00
58534;BME280;44109;52.398;7.024;2023-03-14T11:05:34;99300.31;;;6.94;100.00
58534;BME280;44109;52.398;7.024;2023-03-14T11:08:11;99320.28;;;6.39;100.00
58534;BME280;44109;52.398;7.024;2023-03-14T11:10:50;99348.81;;;6.57;100.00
58534;BME280;44109;52.398;7.024;2023-03-14T11:13:25;99390.97;;;6.24;100.00
58534;BME280;44109;52.398;7.024;2023-03-14T11:16:02;99407.06;;;5.66;100.00
58534;BME280;44109;52.398;7.024;2023-03-14T11:18:51;99417.38;;;5.46;100.00
58534;BME280;44109;52.398;7.024;2023-03-14T11:21:29;99400.84;;;5.19;100.00
58534;BME280;44109;52.398;7.024;2023-03-14T11:26:59;99415.94;;;5.82;100.00
58534;BME280;44109;52.398;7.024;2023-03-14T11:29:37;99416.94;;;5.70;100.00
58534;BME280;44109;52.398;7.024;2023-03-14T11:32:13;99430.56;;;6.16;100.00
58534;BME280;44109;52.398;7.024;2023-03-14T11:34:50;99419.03;;;6.37;100.00
58534;BME280;44109;52.398;7.024;2023-03-14T11:37:25;99420.28;;;6.09;100.00
58534;BME280;44109;52.398;7.024;2023-03-14T11:40:10;99462.88;;;6.19;100.00
58534;BME280;44109;52.398;7.024;2023-03-14T11:42:47;99472.09;;;5.08;100.00
58534;BME280;44109;52.398;7.024;2023-03-14T11:45:26;99476.63;;;4.97;100.00
58534;BME280;44109;52.398;7.024;2023-03-14T11:48:13;99481.34;;;4.97;100.00
58534;BME280;44109;52.398;7.024;2023-03-14T11:50:50;99491.72;;;5.07;100.00
58534;BME280;44109;52.398;7.024;2023-03-14T11:53:29;99466.03;;;5.19;100.00
58534;BME280;44109;52.398;7.024;2023-03-14T11:56:11;99509.06;;;5.80;100.00
58534;BME280;44109;52.398;7.024;2023-03-14T11:58:51;99511.38;;;6.01;100.00
58534;BME280;44109;52.398;7.024;2023-03-14T12:01:32;99498.34;;;6.24;100.00
58534;BME280;44109;52.398;7.024;2023-03-14T12:04:15;99521.19;;;6.89;100.00
58534;BME280;44109;52.398;7.024;2023-03-14T12:06:51;99528.78;;;6.65;100.00
58534;BME280;44109;52.398;7.024;2023-03-14T12:09:20;99542.00;;;6.82;100.00
58534;BME280;44109;52.398;7.024;2023-03-14T12:11:52;99535.97;;;6.73;100.00
58534;BME280;44109;52.398;7.024;2023-03-14T12:14:26;99554.50;;;6.76;100.00
58534;BME280;44109;52.398;7.024;2023-03-14T12:16:58;99565.19;;;6.78;100.00
58534;BME280;44109;52.398;7.024;2023-03-14T12:19:33;99579.44;;;6.57;94.97
58534;BME280;44109;52.398;7.024;2023-03-14T12:22:24;99537.31;;;6.26;89.99
58534;BME280;44109;52.398;7.024;2023-03-14T12:25:02;99595.38;;;6.71;89.83
58534;BME280;44109;52.398;7.024;2023-03-14T12:27:48;99602.00;;;6.66;91.51
58534;BME280;44109;52.398;7.024;2023-03-14T12:30:31;99608.09;;;6.79;87.73
58534;BME280;44109;52.398;7.024;2023-03-14T12:39:05;99621.28;;;7.26;88.85
58534;BME280;44109;52.398;7.024;2023-03-14T12:41:50;99620.31;;;7.11;82.11
58534;BME280;44109;52.398;7.024;2023-03-14T12:44:43;99640.63;;;6.96;79.56
58534;BME280;44109;52.398;7.024;2023-03-14T12:50:21;99673.84;;;6.50;75.05
58534;BME280;44109;52.398;7.024;2023-03-14T12:53:06;99670.19;;;6.99;76.68
58534;BME280;44109;52.398;7.024;2023-03-14T12:55:50;99674.31;;;7.12;69.18
58534;BME280;44109;52.398;7.024;2023-03-14T12:58:33;99680.19;;;7.11;68.94
58534;BME280;44109;52.398;7.024;2023-03-14T13:01:15;99683.75;;;7.42;77.37
58534;BME280;44109;52.398;7.024;2023-03-14T13:03:47;99685.09;;;7.58;69.98
58534;BME280;44109;52.398;7.024;2023-03-14T13:06:44;99690.75;;;7.69;70.38
58534;BME280;44109;52.398;7.024;2023-03-14T13:09:49;99702.59;;;7.36;71.50
58534;BME280;44109;52.398;7.024;2023-03-14T13:12:25;99719.03;;;6.99;73.24
58534;BME280;44109;52.398;7.024;2023-03-14T13:14:59;99698.19;;;6.25;70.87
58534;BME280;44109;52.398;7.024;2023-03-14T13:17:32;99728.56;;;6.52;67.70
58534;BME280;44109;52.398;7.024;2023-03-14T13:20:05;99740.38;;;6.52;66.21
58534;BME280;44109;52.398;7.024;2023-03-14T13:22:45;99721.03;;;6.75;72.47
58534;BME280;44109;52.398;7.024;2023-03-14T13:25:15;99763.38;;;7.13;67.62
58534;BME280;44109;52.398;7.024;2023-03-14T13:27:44;99748.59;;;7.28;62.30
58534;BME280;44109;52.398;7.024;2023-03-14T13:30:16;99772.34;;;7.67;65.80
58534;BME280;44109;52.398;7.024;2023-03-14T13:32:49;99768.13;;;8.10;65.12